PAAQ METAR and TAF weather

Enter ICAO airport designator
Station Type Date Time Source
PAAQ METAR 2022/01/26 07:53 UTC NOAA

PAAQ 260753Z AUTO 29003KT 10SM OVC032 M03/M06 A3020 RMK AO2 SLP231 T10331061 TSNO


Station Type Date Time Source
PAAQ Decoded METAR 2022/01/26 07:53 UTC NOAA

PALMER MUNICIPAL AIRPORT, AK, United States (PAAQ) 61-36N 149-06W
Jan 26, 2022 - 02:53 AM EST / 2022.01.26 0753 UTC
Wind: from the WNW (290 degrees) at 3 MPH (3 KT):0
Visibility: 10 mile(s):0
Sky conditions: overcast
Temperature: 26.1 F (-3.3 C)
Dew Point: 21.0 F (-6.1 C)
Relative Humidity: 80%
Pressure (altimeter): 30.2 in. Hg (1022 hPa)
ob: PAAQ 260753Z AUTO 29003KT 10SM OVC032 M03/M06 A3020 RMK AO2 SLP231 T10331061 TSNO
cycle: 8

Station Type Date Time Source
PAAQ TAF 2022/01/26 07:40 UTC NOAA

TAF
AMD PAAQ 260637Z 2607/2706 36004KT P6SM OVC040
TEMPO 2607/2611 OVC030

Example: see airport list